This is the latest recevied weather packets stored in our database for station/object YO8PIC-5. If no packets are shown the sender has not sent any weather packets the latest 10 day(s).
| Time | Temp. | Humidity | Pressure | Rain* | Wind** | Luminosity | Snow |
|---|---|---|---|---|---|---|---|
| 1777712219 | 13.89° C | 30% | 1023.6 hPa | - | - | - | - |
| 1777711319 | 13.89° C | 31% | 1023.9 hPa | - | - | - | - |
| 1777710418 | 11.11° C | 39% | 1023.7 hPa | - | - | - | - |
| 1777709518 | 12.22° C | 35% | 1023.6 hPa | - | - | - | - |
| 1777708618 | 15.56° C | 30% | 1023.7 hPa | - | - | - | - |
| 1777707718 | 12.22° C | 40% | 1023.5 hPa | - | - | - | - |
| 1777706818 | 11.67° C | 41% | 1023.6 hPa | - | - | - | - |
| 1777705917 | 8.89° C | 51% | 1023.6 hPa | - | - | - | - |
| 1777705016 | 10° C | 52% | 1023.6 hPa | - | - | - | - |
| 1777704116 | 8.89° C | 59% | 1023.6 hPa | - | - | - | - |
| 1777703223 | 7.78° C | 65% | 1023.4 hPa | - | - | - | - |
| 1777702323 | 7.78° C | 66% | 1023.2 hPa | - | - | - | - |
| 1777701422 | 6.67° C | 70% | 1023.2 hPa | - | - | - | - |
| 1777700521 | 6.11° C | 74% | 1023.1 hPa | - | - | - | - |
| 1777699621 | 6.11° C | 73% | 1023 hPa | - | - | - | - |
| 1777698721 | 6.11° C | 75% | 1022.9 hPa | - | - | - | - |
| 1777697821 | 5.56° C | 75% | 1022.9 hPa | - | - | - | - |
| 1777696920 | 5.56° C | 76% | 1022.7 hPa | - | - | - | - |
| 1777696020 | 5° C | 76% | 1022.6 hPa | - | - | - | - |
| 1777695120 | 4.44° C | 79% | 1022.6 hPa | - | - | - | - |
| 1777694220 | 3.89° C | 80% | 1022.6 hPa | - | - | - | - |
| 1777693320 | 3.89° C | 81% | 1022.5 hPa | - | - | - | - |
| 1777692419 | 3.33° C | 81% | 1022.4 hPa | - | - | - | - |
| 1777691519 | 3.33° C | 82% | 1022.3 hPa | - | - | - | - |
| 1777690633 | 3.33° C | 81% | 1022.3 hPa | - | - | - | - |
* Rain since midnight (hover to see other rain measurements)
** Current wind speed in m/s (hover to see current wind gust speed)